sensor_id;sensor_type;location;lat;lon;timestamp;pressure;altitude;pressure_sealevel;temperature;humidity
20860;BME280;10590;48.154;11.514;2022-11-27T00:02:06;96866.28;;;-0.61;100.00
20860;BME280;10590;48.154;11.514;2022-11-27T00:07:09;96837.38;;;-1.17;100.00
20860;BME280;10590;48.154;11.514;2022-11-27T00:12:11;96853.44;;;-0.57;100.00
20860;BME280;10590;48.154;11.514;2022-11-27T00:17:12;96851.22;;;-0.97;100.00
20860;BME280;10590;48.154;11.514;2022-11-27T00:22:15;96866.06;;;-0.59;100.00
20860;BME280;10590;48.154;11.514;2022-11-27T00:27:17;96860.81;;;-1.03;100.00
20860;BME280;10590;48.154;11.514;2022-11-27T00:32:19;96867.41;;;-0.50;100.00
20860;BME280;10590;48.154;11.514;2022-11-27T00:37:22;96863.72;;;-0.86;100.00
20860;BME280;10590;48.154;11.514;2022-11-27T00:42:23;96845.47;;;-1.12;100.00
20860;BME280;10590;48.154;11.514;2022-11-27T00:47:25;96824.00;;;-1.23;100.00
20860;BME280;10590;48.154;11.514;2022-11-27T00:52:28;96816.31;;;-1.49;100.00
20860;BME280;10590;48.154;11.514;2022-11-27T00:57:30;96807.72;;;-1.01;100.00
20860;BME280;10590;48.154;11.514;2022-11-27T01:02:32;96819.97;;;-1.50;100.00
20860;BME280;10590;48.154;11.514;2022-11-27T01:07:35;96797.06;;;-1.56;100.00
20860;BME280;10590;48.154;11.514;2022-11-27T01:12:37;96798.22;;;-1.09;100.00
20860;BME280;10590;48.154;11.514;2022-11-27T01:17:38;96803.00;;;-0.99;100.00
20860;BME280;10590;48.154;11.514;2022-11-27T01:22:41;96815.72;;;-1.08;100.00
20860;BME280;10590;48.154;11.514;2022-11-27T01:27:43;96808.44;;;-1.12;100.00
20860;BME280;10590;48.154;11.514;2022-11-27T01:32:46;96803.28;;;-1.07;100.00
20860;BME280;10590;48.154;11.514;2022-11-27T01:37:49;96805.78;;;-1.12;100.00
20860;BME280;10590;48.154;11.514;2022-11-27T01:42:51;96800.22;;;-0.86;100.00
20860;BME280;10590;48.154;11.514;2022-11-27T01:48:00;96797.38;;;-1.46;100.00
20860;BME280;10590;48.154;11.514;2022-11-27T01:53:09;96800.31;;;-1.36;100.00
20860;BME280;10590;48.154;11.514;2022-11-27T01:58:18;96790.00;;;-1.62;100.00
20860;BME280;10590;48.154;11.514;2022-11-27T02:03:21;96786.31;;;-1.18;100.00
20860;BME280;10590;48.154;11.514;2022-11-27T02:08:25;96796.25;;;-1.13;100.00
20860;BME280;10590;48.154;11.514;2022-11-27T02:13:30;96791.25;;;-1.65;100.00
20860;BME280;10590;48.154;11.514;2022-11-27T02:18:39;96764.63;;;-1.88;100.00
20860;BME280;10590;48.154;11.514;2022-11-27T02:24:25;96751.50;;;-1.77;100.00
20860;BME280;10590;48.154;11.514;2022-11-27T02:29:35;96765.00;;;-1.05;100.00
20860;BME280;10590;48.154;11.514;2022-11-27T02:34:42;96757.38;;;-1.13;100.00
20860;BME280;10590;48.154;11.514;2022-11-27T02:39:53;96754.16;;;-1.58;100.00
20860;BME280;10590;48.154;11.514;2022-11-27T02:45:01;96742.84;;;-1.65;100.00
20860;BME280;10590;48.154;11.514;2022-11-27T02:50:06;96743.19;;;-1.18;100.00
20860;BME280;10590;48.154;11.514;2022-11-27T02:55:13;96736.94;;;-1.06;100.00
20860;BME280;10590;48.154;11.514;2022-11-27T03:00:19;96721.13;;;-1.67;100.00
20860;BME280;10590;48.154;11.514;2022-11-27T03:05:22;96709.22;;;-1.03;100.00
20860;BME280;10590;48.154;11.514;2022-11-27T03:10:30;96706.25;;;-0.95;100.00
20860;BME280;10590;48.154;11.514;2022-11-27T03:15:40;96706.13;;;-0.82;100.00
20860;BME280;10590;48.154;11.514;2022-11-27T03:20:46;96722.75;;;-1.11;100.00
20860;BME280;10590;48.154;11.514;2022-11-27T03:25:52;96702.00;;;-0.78;100.00
20860;BME280;10590;48.154;11.514;2022-11-27T03:30:57;96701.28;;;-1.03;100.00
20860;BME280;10590;48.154;11.514;2022-11-27T03:35:58;96696.53;;;-1.13;100.00
20860;BME280;10590;48.154;11.514;2022-11-27T03:41:04;96697.47;;;-1.07;100.00
20860;BME280;10590;48.154;11.514;2022-11-27T03:46:16;96686.69;;;-1.24;100.00
20860;BME280;10590;48.154;11.514;2022-11-27T03:51:32;96675.09;;;-1.78;100.00
20860;BME280;10590;48.154;11.514;2022-11-27T03:56:39;96650.84;;;-1.93;100.00
20860;BME280;10590;48.154;11.514;2022-11-27T04:01:43;96657.22;;;-2.01;100.00
20860;BME280;10590;48.154;11.514;2022-11-27T04:06:45;96653.47;;;-1.93;100.00
20860;BME280;10590;48.154;11.514;2022-11-27T04:11:46;96656.72;;;-1.73;100.00
20860;BME280;10590;48.154;11.514;2022-11-27T04:16:49;96666.44;;;-2.10;100.00
20860;BME280;10590;48.154;11.514;2022-11-27T04:21:51;96653.81;;;-1.83;100.00
20860;BME280;10590;48.154;11.514;2022-11-27T04:26:53;96672.06;;;-1.27;100.00
20860;BME280;10590;48.154;11.514;2022-11-27T04:31:58;96681.84;;;-1.27;100.00
20860;BME280;10590;48.154;11.514;2022-11-27T04:36:59;96676.63;;;-1.34;100.00
20860;BME280;10590;48.154;11.514;2022-11-27T04:42:01;96666.78;;;-2.00;100.00
20860;BME280;10590;48.154;11.514;2022-11-27T04:47:04;96657.47;;;-1.84;100.00
20860;BME280;10590;48.154;11.514;2022-11-27T04:52:06;96671.19;;;-1.57;100.00
20860;BME280;10590;48.154;11.514;2022-11-27T04:57:08;96679.72;;;-1.37;100.00
20860;BME280;10590;48.154;11.514;2022-11-27T05:02:11;96686.75;;;-1.31;100.00
20860;BME280;10590;48.154;11.514;2022-11-27T05:07:12;96676.97;;;-1.12;100.00
20860;BME280;10590;48.154;11.514;2022-11-27T05:12:14;96666.13;;;-2.20;100.00
20860;BME280;10590;48.154;11.514;2022-11-27T05:17:17;96646.53;;;-1.88;100.00
20860;BME280;10590;48.154;11.514;2022-11-27T05:22:19;96661.91;;;-1.41;100.00
20860;BME280;10590;48.154;11.514;2022-11-27T05:27:20;96663.69;;;-1.24;100.00
20860;BME280;10590;48.154;11.514;2022-11-27T05:32:23;96686.03;;;-1.38;100.00
20860;BME280;10590;48.154;11.514;2022-11-27T05:37:25;96681.59;;;-1.99;100.00
20860;BME280;10590;48.154;11.514;2022-11-27T05:42:27;96673.41;;;-1.36;100.00
20860;BME280;10590;48.154;11.514;2022-11-27T05:47:30;96661.06;;;-2.22;100.00
20860;BME280;10590;48.154;11.514;2022-11-27T05:52:32;96639.19;;;-2.54;100.00
20860;BME280;10590;48.154;11.514;2022-11-27T05:57:33;96638.84;;;-2.14;100.00
20860;BME280;10590;48.154;11.514;2022-11-27T06:02:36;96648.66;;;-1.78;100.00
20860;BME280;10590;48.154;11.514;2022-11-27T06:07:38;96660.47;;;-1.62;100.00
20860;BME280;10590;48.154;11.514;2022-11-27T06:12:41;96656.59;;;-1.78;100.00
20860;BME280;10590;48.154;11.514;2022-11-27T06:17:44;96639.75;;;-2.02;100.00
20860;BME280;10590;48.154;11.514;2022-11-27T06:22:46;96641.34;;;-2.19;100.00
20860;BME280;10590;48.154;11.514;2022-11-27T06:27:48;96647.44;;;-2.19;100.00
20860;BME280;10590;48.154;11.514;2022-11-27T06:32:51;96660.09;;;-2.03;100.00
20860;BME280;10590;48.154;11.514;2022-11-27T06:37:52;96660.75;;;-2.07;100.00
20860;BME280;10590;48.154;11.514;2022-11-27T06:42:54;96651.25;;;-2.40;100.00
20860;BME280;10590;48.154;11.514;2022-11-27T06:47:57;96638.44;;;-2.36;100.00
20860;BME280;10590;48.154;11.514;2022-11-27T06:52:59;96629.09;;;-2.64;100.00
20860;BME280;10590;48.154;11.514;2022-11-27T06:58:01;96619.84;;;-2.48;100.00
20860;BME280;10590;48.154;11.514;2022-11-27T07:03:04;96634.22;;;-1.76;100.00
20860;BME280;10590;48.154;11.514;2022-11-27T07:08:09;96634.22;;;-1.76;100.00
20860;BME280;10590;48.154;11.514;2022-11-27T07:13:10;96640.16;;;-1.80;100.00
20860;BME280;10590;48.154;11.514;2022-11-27T07:18:13;96640.28;;;-1.38;100.00
20860;BME280;10590;48.154;11.514;2022-11-27T07:23:15;96632.56;;;-1.21;100.00
20860;BME280;10590;48.154;11.514;2022-11-27T07:28:17;96640.06;;;-1.07;100.00
20860;BME280;10590;48.154;11.514;2022-11-27T07:33:20;96634.25;;;-0.97;100.00
20860;BME280;10590;48.154;11.514;2022-11-27T07:38:21;96640.84;;;-0.88;100.00
20860;BME280;10590;48.154;11.514;2022-11-27T07:43:23;96622.38;;;-0.64;100.00
20860;BME280;10590;48.154;11.514;2022-11-27T07:48:26;96618.38;;;-0.43;100.00
20860;BME280;10590;48.154;11.514;2022-11-27T07:53:28;96612.88;;;0.05;100.00
20860;BME280;10590;48.154;11.514;2022-11-27T07:58:30;96602.84;;;-0.28;100.00
20860;BME280;10590;48.154;11.514;2022-11-27T08:03:33;96609.03;;;0.36;100.00
20860;BME280;10590;48.154;11.514;2022-11-27T08:08:34;96613.00;;;0.62;100.00
20860;BME280;10590;48.154;11.514;2022-11-27T08:13:36;96603.09;;;-0.06;100.00
20860;BME280;10590;48.154;11.514;2022-11-27T08:18:39;96599.44;;;0.35;100.00
20860;BME280;10590;48.154;11.514;2022-11-27T08:23:51;96592.38;;;0.12;100.00
20860;BME280;10590;48.154;11.514;2022-11-27T08:28:53;96591.22;;;1.85;100.00
20860;BME280;10590;48.154;11.514;2022-11-27T08:33:56;96584.94;;;2.52;100.00
20860;BME280;10590;48.154;11.514;2022-11-27T08:38:58;96586.22;;;2.98;100.00
20860;BME280;10590;48.154;11.514;2022-11-27T08:43:59;96583.22;;;4.86;91.70
20860;BME280;10590;48.154;11.514;2022-11-27T08:49:03;96589.88;;;4.83;91.43
20860;BME280;10590;48.154;11.514;2022-11-27T08:54:04;96576.94;;;4.45;89.42
20860;BME280;10590;48.154;11.514;2022-11-27T08:59:06;96584.88;;;6.40;82.29
20860;BME280;10590;48.154;11.514;2022-11-27T09:04:09;96584.22;;;4.07;93.37
20860;BME280;10590;48.154;11.514;2022-11-27T09:09:11;96588.97;;;3.03;100.00
20860;BME280;10590;48.154;11.514;2022-11-27T09:14:12;96585.13;;;3.48;96.32
20860;BME280;10590;48.154;11.514;2022-11-27T09:19:15;96571.25;;;4.26;90.24
20860;BME280;10590;48.154;11.514;2022-11-27T09:24:18;96569.75;;;4.55;89.62
20860;BME280;10590;48.154;11.514;2022-11-27T09:29:20;96566.72;;;6.17;79.32
20860;BME280;10590;48.154;11.514;2022-11-27T09:34:23;96565.34;;;6.45;72.14
20860;BME280;10590;48.154;11.514;2022-11-27T09:39:24;96543.94;;;8.02;70.63
20860;BME280;10590;48.154;11.514;2022-11-27T09:44:33;96542.16;;;5.69;75.33
20860;BME280;10590;48.154;11.514;2022-11-27T09:49:44;96534.84;;;4.62;85.57
20860;BME280;10590;48.154;11.514;2022-11-27T09:54:51;96525.50;;;6.23;78.06
20860;BME280;10590;48.154;11.514;2022-11-27T09:59:54;96504.72;;;4.87;80.61
20860;BME280;10590;48.154;11.514;2022-11-27T10:05:05;96501.81;;;5.39;79.77
20860;BME280;10590;48.154;11.514;2022-11-27T10:10:20;96487.09;;;7.66;68.54
20860;BME280;10590;48.154;11.514;2022-11-27T10:15:36;96493.16;;;6.74;70.41
20860;BME280;10590;48.154;11.514;2022-11-27T10:20:43;96486.53;;;6.01;77.20
20860;BME280;10590;48.154;11.514;2022-11-27T10:25:48;96484.34;;;6.08;75.70
20860;BME280;10590;48.154;11.514;2022-11-27T10:30:54;96460.97;;;6.79;76.42
20860;BME280;10590;48.154;11.514;2022-11-27T10:36:00;96467.59;;;5.62;80.70
20860;BME280;10590;48.154;11.514;2022-11-27T10:41:06;96455.97;;;7.06;74.55
20860;BME280;10590;48.154;11.514;2022-11-27T10:46:12;96450.56;;;7.99;70.89
20860;BME280;10590;48.154;11.514;2022-11-27T10:51:18;96433.09;;;8.44;65.67
20860;BME280;10590;48.154;11.514;2022-11-27T10:56:39;96445.56;;;6.01;75.58
20860;BME280;10590;48.154;11.514;2022-11-27T11:01:45;96455.50;;;4.42;82.21
20860;BME280;10590;48.154;11.514;2022-11-27T11:06:49;96448.09;;;5.10;84.68
20860;BME280;10590;48.154;11.514;2022-11-27T11:11:51;96438.22;;;4.90;82.71
20860;BME280;10590;48.154;11.514;2022-11-27T11:16:53;96444.13;;;4.92;90.28
20860;BME280;10590;48.154;11.514;2022-11-27T11:22:03;96453.84;;;4.26;96.91
20860;BME280;10590;48.154;11.514;2022-11-27T11:27:12;96459.91;;;4.06;99.31
20860;BME280;10590;48.154;11.514;2022-11-27T11:32:20;96445.13;;;3.78;100.00
20860;BME280;10590;48.154;11.514;2022-11-27T11:37:26;96447.66;;;3.52;100.00
20860;BME280;10590;48.154;11.514;2022-11-27T11:42:33;96444.06;;;3.31;100.00
20860;BME280;10590;48.154;11.514;2022-11-27T11:47:43;96435.66;;;3.12;100.00
20860;BME280;10590;48.154;11.514;2022-11-27T11:52:52;96443.69;;;2.85;100.00
20860;BME280;10590;48.154;11.514;2022-11-27T11:58:20;96446.94;;;2.92;100.00
20860;BME280;10590;48.154;11.514;2022-11-27T12:03:36;96442.16;;;2.94;100.00
20860;BME280;10590;48.154;11.514;2022-11-27T12:08:52;96428.31;;;2.60;100.00
20860;BME280;10590;48.154;11.514;2022-11-27T12:14:08;96412.75;;;2.47;100.00
20860;BME280;10590;48.154;11.514;2022-11-27T12:19:41;96419.63;;;2.43;100.00
20860;BME280;10590;48.154;11.514;2022-11-27T12:24:54;96417.91;;;2.32;100.00
20860;BME280;10590;48.154;11.514;2022-11-27T12:30:14;96402.72;;;2.27;100.00
20860;BME280;10590;48.154;11.514;2022-11-27T12:35:28;96393.09;;;2.21;100.00
20860;BME280;10590;48.154;11.514;2022-11-27T12:40:42;96383.88;;;2.07;100.00
20860;BME280;10590;48.154;11.514;2022-11-27T12:45:51;96386.09;;;2.15;100.00
20860;BME280;10590;48.154;11.514;2022-11-27T12:50:57;96382.84;;;2.08;100.00
20860;BME280;10590;48.154;11.514;2022-11-27T12:56:08;96373.00;;;2.35;100.00
20860;BME280;10590;48.154;11.514;2022-11-27T13:01:18;96351.34;;;3.33;100.00
20860;BME280;10590;48.154;11.514;2022-11-27T13:06:24;96348.44;;;3.98;99.33
20860;BME280;10590;48.154;11.514;2022-11-27T13:11:33;96346.63;;;4.49;98.35
20860;BME280;10590;48.154;11.514;2022-11-27T13:16:39;96343.38;;;1.72;100.00
20860;BME280;10590;48.154;11.514;2022-11-27T13:21:45;96349.63;;;1.39;100.00
20860;BME280;10590;48.154;11.514;2022-11-27T13:26:55;96341.66;;;1.83;100.00
20860;BME280;10590;48.154;11.514;2022-11-27T13:32:01;96331.28;;;2.09;100.00
20860;BME280;10590;48.154;11.514;2022-11-27T13:37:06;96337.03;;;1.52;100.00
20860;BME280;10590;48.154;11.514;2022-11-27T13:42:17;96329.91;;;1.13;100.00
20860;BME280;10590;48.154;11.514;2022-11-27T13:47:24;96330.66;;;1.53;100.00
20860;BME280;10590;48.154;11.514;2022-11-27T13:52:27;96323.34;;;1.87;100.00
20860;BME280;10590;48.154;11.514;2022-11-27T13:57:31;96326.78;;;1.16;100.00
20860;BME280;10590;48.154;11.514;2022-11-27T14:02:43;96306.19;;;1.72;100.00
20860;BME280;10590;48.154;11.514;2022-11-27T14:07:47;96302.13;;;1.92;100.00
20860;BME280;10590;48.154;11.514;2022-11-27T14:12:55;96304.91;;;2.02;100.00
20860;BME280;10590;48.154;11.514;2022-11-27T14:18:05;96295.09;;;1.81;100.00
20860;BME280;10590;48.154;11.514;2022-11-27T14:23:08;96295.16;;;1.15;100.00
20860;BME280;10590;48.154;11.514;2022-11-27T14:28:14;96297.53;;;1.60;100.00
20860;BME280;10590;48.154;11.514;2022-11-27T14:33:21;96293.94;;;1.22;100.00
20860;BME280;10590;48.154;11.514;2022-11-27T14:38:24;96306.28;;;1.12;100.00
20860;BME280;10590;48.154;11.514;2022-11-27T14:43:28;96290.50;;;1.05;100.00
20860;BME280;10590;48.154;11.514;2022-11-27T14:48:38;96278.44;;;1.14;100.00
20860;BME280;10590;48.154;11.514;2022-11-27T14:53:42;96273.00;;;1.26;100.00
20860;BME280;10590;48.154;11.514;2022-11-27T14:58:49;96267.19;;;1.07;100.00
20860;BME280;10590;48.154;11.514;2022-11-27T15:03:56;96263.19;;;1.05;100.00
20860;BME280;10590;48.154;11.514;2022-11-27T15:08:57;96259.22;;;0.85;100.00
20860;BME280;10590;48.154;11.514;2022-11-27T15:14:02;96251.28;;;1.07;100.00
20860;BME280;10590;48.154;11.514;2022-11-27T15:19:04;96256.16;;;1.15;100.00
20860;BME280;10590;48.154;11.514;2022-11-27T15:24:26;96251.84;;;0.70;100.00
20860;BME280;10590;48.154;11.514;2022-11-27T15:29:32;96236.81;;;0.37;100.00
20860;BME280;10590;48.154;11.514;2022-11-27T15:34:35;96217.44;;;0.76;100.00
20860;BME280;10590;48.154;11.514;2022-11-27T15:39:44;96207.19;;;0.84;100.00
20860;BME280;10590;48.154;11.514;2022-11-27T15:44:51;96210.16;;;1.10;100.00
20860;BME280;10590;48.154;11.514;2022-11-27T15:49:54;96207.44;;;1.05;100.00
20860;BME280;10590;48.154;11.514;2022-11-27T15:54:55;96204.56;;;0.84;100.00
20860;BME280;10590;48.154;11.514;2022-11-27T15:59:59;96197.56;;;1.22;100.00
20860;BME280;10590;48.154;11.514;2022-11-27T16:05:01;96198.00;;;0.92;100.00
20860;BME280;10590;48.154;11.514;2022-11-27T16:10:03;96185.03;;;0.73;100.00
20860;BME280;10590;48.154;11.514;2022-11-27T16:15:09;96188.59;;;0.79;100.00
20860;BME280;10590;48.154;11.514;2022-11-27T16:20:11;96178.63;;;0.47;100.00
20860;BME280;10590;48.154;11.514;2022-11-27T16:25:13;96168.03;;;0.31;100.00
20860;BME280;10590;48.154;11.514;2022-11-27T16:30:16;96159.38;;;0.57;100.00
20860;BME280;10590;48.154;11.514;2022-11-27T16:35:19;96159.75;;;0.66;100.00
20860;BME280;10590;48.154;11.514;2022-11-27T16:40:21;96156.22;;;0.38;100.00
20860;BME280;10590;48.154;11.514;2022-11-27T16:45:24;96148.31;;;0.21;100.00
20860;BME280;10590;48.154;11.514;2022-11-27T16:50:26;96141.78;;;0.29;100.00
20860;BME280;10590;48.154;11.514;2022-11-27T16:55:29;96121.16;;;0.14;100.00
20860;BME280;10590;48.154;11.514;2022-11-27T17:00:32;96108.28;;;0.23;100.00
20860;BME280;10590;48.154;11.514;2022-11-27T17:05:36;96109.53;;;-0.23;100.00
20860;BME280;10590;48.154;11.514;2022-11-27T17:10:38;96084.63;;;-0.39;100.00
20860;BME280;10590;48.154;11.514;2022-11-27T17:15:41;96076.00;;;0.26;100.00
20860;BME280;10590;48.154;11.514;2022-11-27T17:20:43;96072.41;;;-0.07;100.00
20860;BME280;10590;48.154;11.514;2022-11-27T17:25:44;96072.44;;;-0.23;100.00
20860;BME280;10590;48.154;11.514;2022-11-27T17:30:47;96071.28;;;-0.28;100.00
20860;BME280;10590;48.154;11.514;2022-11-27T17:35:49;96057.31;;;-0.62;100.00
20860;BME280;10590;48.154;11.514;2022-11-27T17:40:51;96044.72;;;-0.55;100.00
20860;BME280;10590;48.154;11.514;2022-11-27T17:45:54;96043.09;;;-0.39;100.00
20860;BME280;10590;48.154;11.514;2022-11-27T17:50:56;96051.44;;;-0.47;100.00
20860;BME280;10590;48.154;11.514;2022-11-27T17:56:03;96040.84;;;-0.47;100.00
20860;BME280;10590;48.154;11.514;2022-11-27T18:01:14;96024.81;;;-0.74;100.00
20860;BME280;10590;48.154;11.514;2022-11-27T18:06:18;96018.72;;;-0.58;100.00
20860;BME280;10590;48.154;11.514;2022-11-27T18:11:23;96022.13;;;-0.23;100.00
20860;BME280;10590;48.154;11.514;2022-11-27T18:16:31;96041.09;;;-0.10;100.00
20860;BME280;10590;48.154;11.514;2022-11-27T18:21:33;96017.94;;;-0.36;100.00
20860;BME280;10590;48.154;11.514;2022-11-27T18:26:35;96001.84;;;-0.52;100.00
20860;BME280;10590;48.154;11.514;2022-11-27T18:31:39;95995.34;;;-0.44;100.00
20860;BME280;10590;48.154;11.514;2022-11-27T18:36:41;95992.25;;;-0.58;100.00
20860;BME280;10590;48.154;11.514;2022-11-27T18:41:42;95991.00;;;-0.33;100.00
20860;BME280;10590;48.154;11.514;2022-11-27T18:46:46;95983.16;;;-0.45;100.00
20860;BME280;10590;48.154;11.514;2022-11-27T18:51:48;95974.66;;;-0.47;100.00
20860;BME280;10590;48.154;11.514;2022-11-27T18:56:50;95967.31;;;-0.40;100.00
20860;BME280;10590;48.154;11.514;2022-11-27T19:01:53;95961.50;;;-0.42;100.00
20860;BME280;10590;48.154;11.514;2022-11-27T19:06:55;95957.88;;;-0.14;100.00
20860;BME280;10590;48.154;11.514;2022-11-27T19:11:57;95958.66;;;-0.13;100.00
20860;BME280;10590;48.154;11.514;2022-11-27T19:17:00;95960.03;;;-0.11;100.00
20860;BME280;10590;48.154;11.514;2022-11-27T19:22:02;95958.97;;;0.12;100.00
20860;BME280;10590;48.154;11.514;2022-11-27T19:27:04;95954.53;;;-0.04;100.00
20860;BME280;10590;48.154;11.514;2022-11-27T19:32:07;95956.47;;;0.01;100.00
20860;BME280;10590;48.154;11.514;2022-11-27T19:37:08;95955.66;;;0.00;100.00
20860;BME280;10590;48.154;11.514;2022-11-27T19:42:10;95942.94;;;0.02;100.00
20860;BME280;10590;48.154;11.514;2022-11-27T19:47:13;95940.34;;;0.07;100.00
20860;BME280;10590;48.154;11.514;2022-11-27T19:52:15;95927.53;;;0.21;100.00
20860;BME280;10590;48.154;11.514;2022-11-27T19:57:17;95907.00;;;0.11;100.00
20860;BME280;10590;48.154;11.514;2022-11-27T20:02:20;95896.25;;;-0.04;100.00
20860;BME280;10590;48.154;11.514;2022-11-27T20:07:21;95884.34;;;-0.02;100.00
20860;BME280;10590;48.154;11.514;2022-11-27T20:12:23;95863.50;;;0.07;100.00
20860;BME280;10590;48.154;11.514;2022-11-27T20:17:27;95889.31;;;0.17;100.00
20860;BME280;10590;48.154;11.514;2022-11-27T20:22:28;95889.50;;;0.10;100.00
20860;BME280;10590;48.154;11.514;2022-11-27T20:27:30;95890.88;;;0.40;100.00
20860;BME280;10590;48.154;11.514;2022-11-27T20:32:33;95881.22;;;0.29;100.00
20860;BME280;10590;48.154;11.514;2022-11-27T20:37:35;95872.69;;;0.27;100.00
20860;BME280;10590;48.154;11.514;2022-11-27T20:42:37;95868.97;;;0.22;100.00
20860;BME280;10590;48.154;11.514;2022-11-27T20:47:40;95859.91;;;0.18;100.00
20860;BME280;10590;48.154;11.514;2022-11-27T20:52:42;95849.72;;;0.32;100.00
20860;BME280;10590;48.154;11.514;2022-11-27T20:57:44;95842.16;;;0.19;100.00
20860;BME280;10590;48.154;11.514;2022-11-27T21:02:47;95821.53;;;-0.06;100.00
20860;BME280;10590;48.154;11.514;2022-11-27T21:07:49;95821.03;;;-0.03;100.00
20860;BME280;10590;48.154;11.514;2022-11-27T21:12:51;95808.88;;;0.01;100.00
20860;BME280;10590;48.154;11.514;2022-11-27T21:17:54;95801.44;;;0.30;100.00
20860;BME280;10590;48.154;11.514;2022-11-27T21:22:55;95799.84;;;0.29;100.00
20860;BME280;10590;48.154;11.514;2022-11-27T21:27:57;95801.59;;;0.18;100.00
20860;BME280;10590;48.154;11.514;2022-11-27T21:33:00;95791.16;;;0.07;100.00
20860;BME280;10590;48.154;11.514;2022-11-27T21:38:02;95783.31;;;-0.15;100.00
20860;BME280;10590;48.154;11.514;2022-11-27T21:43:03;95789.69;;;0.16;100.00
20860;BME280;10590;48.154;11.514;2022-11-27T21:48:06;95777.75;;;0.18;100.00
20860;BME280;10590;48.154;11.514;2022-11-27T21:53:10;95780.84;;;0.05;100.00
20860;BME280;10590;48.154;11.514;2022-11-27T21:58:12;95779.69;;;-0.04;100.00
20860;BME280;10590;48.154;11.514;2022-11-27T22:03:15;95777.72;;;0.13;100.00
20860;BME280;10590;48.154;11.514;2022-11-27T22:08:17;95774.78;;;0.47;100.00
20860;BME280;10590;48.154;11.514;2022-11-27T22:13:19;95765.47;;;0.39;100.00
20860;BME280;10590;48.154;11.514;2022-11-27T22:18:22;95762.28;;;0.05;100.00
20860;BME280;10590;48.154;11.514;2022-11-27T22:23:24;95761.78;;;0.08;100.00
20860;BME280;10590;48.154;11.514;2022-11-27T22:28:26;95735.16;;;-0.07;100.00
20860;BME280;10590;48.154;11.514;2022-11-27T22:33:29;95730.34;;;-0.15;100.00
20860;BME280;10590;48.154;11.514;2022-11-27T22:38:34;95728.91;;;0.46;100.00
20860;BME280;10590;48.154;11.514;2022-11-27T22:43:36;95731.63;;;0.19;100.00
20860;BME280;10590;48.154;11.514;2022-11-27T22:48:40;95723.16;;;0.17;100.00
20860;BME280;10590;48.154;11.514;2022-11-27T22:53:42;95727.16;;;0.20;100.00
20860;BME280;10590;48.154;11.514;2022-11-27T22:58:43;95719.16;;;0.15;100.00
20860;BME280;10590;48.154;11.514;2022-11-27T23:03:47;95710.69;;;0.13;100.00
20860;BME280;10590;48.154;11.514;2022-11-27T23:08:50;95697.63;;;0.06;100.00
20860;BME280;10590;48.154;11.514;2022-11-27T23:13:53;95702.16;;;0.06;100.00
20860;BME280;10590;48.154;11.514;2022-11-27T23:18:56;95702.81;;;-0.09;100.00
20860;BME280;10590;48.154;11.514;2022-11-27T23:23:58;95694.88;;;-0.09;100.00
20860;BME280;10590;48.154;11.514;2022-11-27T23:29:00;95684.75;;;-0.17;100.00
20860;BME280;10590;48.154;11.514;2022-11-27T23:34:06;95675.22;;;-0.18;100.00
20860;BME280;10590;48.154;11.514;2022-11-27T23:39:10;95678.50;;;-0.01;100.00
20860;BME280;10590;48.154;11.514;2022-11-27T23:44:12;95670.63;;;0.04;100.00
20860;BME280;10590;48.154;11.514;2022-11-27T23:49:15;95663.47;;;0.05;100.00
20860;BME280;10590;48.154;11.514;2022-11-27T23:54:18;95670.19;;;0.22;100.00
20860;BME280;10590;48.154;11.514;2022-11-27T23:59:20;95664.31;;;0.15;100.00
